sensor_id;sensor_type;location;lat;lon;timestamp;P1;durP1;ratioP1;P2;durP2;ratioP2
61638;SDS011;47544;52.484;4.658;2024-01-15T00:00:09;6.30;;;0.68;;
61638;SDS011;47544;52.484;4.658;2024-01-15T00:00:20;4.57;;;0.50;;
61638;SDS011;47544;52.484;4.658;2024-01-15T00:00:31;3.90;;;0.70;;
61638;SDS011;47544;52.484;4.658;2024-01-15T00:00:43;3.47;;;0.77;;
61638;SDS011;47544;52.484;4.658;2024-01-15T00:00:54;4.80;;;0.90;;
61638;SDS011;47544;52.484;4.658;2024-01-15T00:01:06;5.03;;;0.63;;
61638;SDS011;47544;52.484;4.658;2024-01-15T00:01:17;6.80;;;0.80;;
61638;SDS011;47544;52.484;4.658;2024-01-15T00:01:31;6.18;;;0.73;;
61638;SDS011;47544;52.484;4.658;2024-01-15T00:01:42;6.80;;;0.80;;
61638;SDS011;47544;52.484;4.658;2024-01-15T00:01:54;4.65;;;0.60;;
61638;SDS011;47544;52.484;4.658;2024-01-15T00:02:05;5.97;;;0.60;;
61638;SDS011;47544;52.484;4.658;2024-01-15T00:02:17;5.35;;;0.77;;
61638;SDS011;47544;52.484;4.658;2024-01-15T00:02:29;5.75;;;0.73;;
61638;SDS011;47544;52.484;4.658;2024-01-15T00:02:41;5.07;;;0.50;;
61638;SDS011;47544;52.484;4.658;2024-01-15T00:02:52;5.60;;;0.47;;
61638;SDS011;47544;52.484;4.658;2024-01-15T00:03:03;8.68;;;0.60;;
61638;SDS011;47544;52.484;4.658;2024-01-15T00:03:14;10.05;;;0.82;;
61638;SDS011;47544;52.484;4.658;2024-01-15T00:03:25;9.35;;;0.82;;
61638;SDS011;47544;52.484;4.658;2024-01-15T00:03:36;8.63;;;0.80;;
61638;SDS011;47544;52.484;4.658;2024-01-15T00:03:49;8.73;;;0.77;;
61638;SDS011;47544;52.484;4.658;2024-01-15T00:04:00;8.53;;;0.83;;
61638;SDS011;47544;52.484;4.658;2024-01-15T00:04:12;7.45;;;0.80;;
61638;SDS011;47544;52.484;4.658;2024-01-15T00:04:23;6.03;;;0.70;;
61638;SDS011;47544;52.484;4.658;2024-01-15T00:04:36;4.93;;;0.70;;
61638;SDS011;47544;52.484;4.658;2024-01-15T00:04:47;6.38;;;0.80;;
61638;SDS011;47544;52.484;4.658;2024-01-15T00:04:58;8.68;;;0.82;;
61638;SDS011;47544;52.484;4.658;2024-01-15T00:05:09;7.55;;;0.70;;
61638;SDS011;47544;52.484;4.658;2024-01-15T00:05:20;7.63;;;0.63;;
61638;SDS011;47544;52.484;4.658;2024-01-15T00:05:31;8.45;;;0.77;;
61638;SDS011;47544;52.484;4.658;2024-01-15T00:05:42;8.75;;;0.85;;
61638;SDS011;47544;52.484;4.658;2024-01-15T00:05:54;8.70;;;0.75;;
61638;SDS011;47544;52.484;4.658;2024-01-15T00:06:05;8.32;;;0.80;;
61638;SDS011;47544;52.484;4.658;2024-01-15T00:06:16;8.20;;;0.80;;
61638;SDS011;47544;52.484;4.658;2024-01-15T00:06:27;6.15;;;0.60;;
61638;SDS011;47544;52.484;4.658;2024-01-15T00:06:39;5.05;;;0.60;;
61638;SDS011;47544;52.484;4.658;2024-01-15T00:06:50;6.85;;;0.68;;
61638;SDS011;47544;52.484;4.658;2024-01-15T00:07:01;8.10;;;0.80;;
61638;SDS011;47544;52.484;4.658;2024-01-15T00:07:12;9.43;;;0.70;;
61638;SDS011;47544;52.484;4.658;2024-01-15T00:07:23;7.72;;;0.63;;
61638;SDS011;47544;52.484;4.658;2024-01-15T00:07:34;5.88;;;0.65;;
61638;SDS011;47544;52.484;4.658;2024-01-15T00:07:45;4.93;;;0.70;;
61638;SDS011;47544;52.484;4.658;2024-01-15T00:07:57;4.50;;;0.70;;
61638;SDS011;47544;52.484;4.658;2024-01-15T00:08:08;5.22;;;0.85;;
61638;SDS011;47544;52.484;4.658;2024-01-15T00:08:19;7.34;;;0.90;;
61638;SDS011;47544;52.484;4.658;2024-01-15T00:08:30;8.03;;;0.77;;
61638;SDS011;47544;52.484;4.658;2024-01-15T00:08:41;8.25;;;0.68;;
61638;SDS011;47544;52.484;4.658;2024-01-15T00:08:52;6.10;;;0.65;;
61638;SDS011;47544;52.484;4.658;2024-01-15T00:09:03;4.65;;;0.50;;
61638;SDS011;47544;52.484;4.658;2024-01-15T00:09:14;4.60;;;0.50;;
61638;SDS011;47544;52.484;4.658;2024-01-15T00:09:25;3.47;;;0.55;;
61638;SDS011;47544;52.484;4.658;2024-01-15T00:09:39;3.58;;;0.60;;
61638;SDS011;47544;52.484;4.658;2024-01-15T00:09:51;4.65;;;0.52;;
61638;SDS011;47544;52.484;4.658;2024-01-15T00:10:02;6.40;;;0.60;;
61638;SDS011;47544;52.484;4.658;2024-01-15T00:10:13;6.22;;;0.70;;
61638;SDS011;47544;52.484;4.658;2024-01-15T00:10:24;5.95;;;0.65;;
61638;SDS011;47544;52.484;4.658;2024-01-15T00:10:35;4.43;;;0.60;;
61638;SDS011;47544;52.484;4.658;2024-01-15T00:10:46;5.07;;;0.50;;
61638;SDS011;47544;52.484;4.658;2024-01-15T00:10:57;5.20;;;0.60;;
61638;SDS011;47544;52.484;4.658;2024-01-15T00:11:08;5.30;;;0.60;;
61638;SDS011;47544;52.484;4.658;2024-01-15T00:11:19;5.47;;;0.60;;
61638;SDS011;47544;52.484;4.658;2024-01-15T00:11:30;6.13;;;0.65;;
61638;SDS011;47544;52.484;4.658;2024-01-15T00:11:41;5.55;;;0.60;;
61638;SDS011;47544;52.484;4.658;2024-01-15T00:11:52;5.93;;;0.73;;
61638;SDS011;47544;52.484;4.658;2024-01-15T00:12:05;6.70;;;0.75;;
61638;SDS011;47544;52.484;4.658;2024-01-15T00:12:16;7.00;;;0.77;;
61638;SDS011;47544;52.484;4.658;2024-01-15T00:12:27;6.65;;;0.60;;
61638;SDS011;47544;52.484;4.658;2024-01-15T00:12:38;5.82;;;0.50;;
61638;SDS011;47544;52.484;4.658;2024-01-15T00:12:49;5.97;;;0.60;;
61638;SDS011;47544;52.484;4.658;2024-01-15T00:13:00;6.22;;;0.68;;
61638;SDS011;47544;52.484;4.658;2024-01-15T00:13:11;5.85;;;0.57;;
61638;SDS011;47544;52.484;4.658;2024-01-15T00:13:22;5.72;;;0.50;;
61638;SDS011;47544;52.484;4.658;2024-01-15T00:13:33;6.25;;;0.60;;
61638;SDS011;47544;52.484;4.658;2024-01-15T00:13:44;5.70;;;0.63;;
61638;SDS011;47544;52.484;4.658;2024-01-15T00:13:56;7.47;;;0.80;;
61638;SDS011;47544;52.484;4.658;2024-01-15T00:14:07;9.60;;;0.90;;
61638;SDS011;47544;52.484;4.658;2024-01-15T00:14:18;10.52;;;0.93;;
61638;SDS011;47544;52.484;4.658;2024-01-15T00:14:30;10.20;;;0.88;;
61638;SDS011;47544;52.484;4.658;2024-01-15T00:14:41;8.23;;;0.65;;
61638;SDS011;47544;52.484;4.658;2024-01-15T00:14:53;7.90;;;0.60;;
61638;SDS011;47544;52.484;4.658;2024-01-15T00:15:04;6.38;;;0.70;;
61638;SDS011;47544;52.484;4.658;2024-01-15T00:15:15;5.28;;;0.52;;
61638;SDS011;47544;52.484;4.658;2024-01-15T00:15:27;4.53;;;0.50;;
61638;SDS011;47544;52.484;4.658;2024-01-15T00:15:39;5.10;;;0.50;;
61638;SDS011;47544;52.484;4.658;2024-01-15T00:15:50;6.25;;;0.50;;
61638;SDS011;47544;52.484;4.658;2024-01-15T00:16:01;5.28;;;0.40;;
61638;SDS011;47544;52.484;4.658;2024-01-15T00:16:12;4.50;;;0.35;;
61638;SDS011;47544;52.484;4.658;2024-01-15T00:16:23;3.97;;;0.40;;
61638;SDS011;47544;52.484;4.658;2024-01-15T00:16:34;3.83;;;0.40;;
61638;SDS011;47544;52.484;4.658;2024-01-15T00:16:45;3.17;;;0.40;;
61638;SDS011;47544;52.484;4.658;2024-01-15T00:16:56;4.13;;;0.50;;
61638;SDS011;47544;52.484;4.658;2024-01-15T00:17:07;4.18;;;0.50;;
61638;SDS011;47544;52.484;4.658;2024-01-15T00:17:18;4.63;;;0.63;;
61638;SDS011;47544;52.484;4.658;2024-01-15T00:17:30;5.30;;;0.60;;
61638;SDS011;47544;52.484;4.658;2024-01-15T00:17:42;5.27;;;0.60;;
61638;SDS011;47544;52.484;4.658;2024-01-15T00:17:53;5.55;;;0.57;;
61638;SDS011;47544;52.484;4.658;2024-01-15T00:18:04;5.60;;;0.60;;
61638;SDS011;47544;52.484;4.658;2024-01-15T00:18:15;5.63;;;0.68;;
61638;SDS011;47544;52.484;4.658;2024-01-15T00:18:26;4.88;;;0.80;;
61638;SDS011;47544;52.484;4.658;2024-01-15T00:18:37;5.55;;;0.70;;
61638;SDS011;47544;52.484;4.658;2024-01-15T00:18:48;6.72;;;0.80;;
61638;SDS011;47544;52.484;4.658;2024-01-15T00:18:59;8.32;;;0.70;;
61638;SDS011;47544;52.484;4.658;2024-01-15T00:19:10;8.35;;;0.85;;
61638;SDS011;47544;52.484;4.658;2024-01-15T00:19:22;7.55;;;0.90;;
61638;SDS011;47544;52.484;4.658;2024-01-15T00:19:34;5.82;;;0.80;;
61638;SDS011;47544;52.484;4.658;2024-01-15T00:19:45;5.32;;;0.60;;
61638;SDS011;47544;52.484;4.658;2024-01-15T00:19:56;4.70;;;0.68;;
61638;SDS011;47544;52.484;4.658;2024-01-15T00:20:07;3.25;;;0.70;;
61638;SDS011;47544;52.484;4.658;2024-01-15T00:20:19;3.45;;;0.77;;
61638;SDS011;47544;52.484;4.658;2024-01-15T00:20:30;4.30;;;0.70;;
61638;SDS011;47544;52.484;4.658;2024-01-15T00:20:41;4.75;;;0.70;;
61638;SDS011;47544;52.484;4.658;2024-01-15T00:20:52;4.75;;;0.43;;
61638;SDS011;47544;52.484;4.658;2024-01-15T00:21:03;3.20;;;0.30;;
61638;SDS011;47544;52.484;4.658;2024-01-15T00:21:15;3.42;;;0.32;;
61638;SDS011;47544;52.484;4.658;2024-01-15T00:21:26;4.18;;;0.50;;
61638;SDS011;47544;52.484;4.658;2024-01-15T00:21:38;3.90;;;0.60;;
61638;SDS011;47544;52.484;4.658;2024-01-15T00:21:49;3.58;;;0.75;;
61638;SDS011;47544;52.484;4.658;2024-01-15T00:22:00;3.58;;;0.70;;
61638;SDS011;47544;52.484;4.658;2024-01-15T00:22:11;3.60;;;0.60;;
61638;SDS011;47544;52.484;4.658;2024-01-15T00:22:23;3.88;;;0.45;;
61638;SDS011;47544;52.484;4.658;2024-01-15T00:22:34;3.95;;;0.50;;
61638;SDS011;47544;52.484;4.658;2024-01-15T00:22:46;4.40;;;0.52;;
61638;SDS011;47544;52.484;4.658;2024-01-15T00:22:57;3.75;;;0.50;;
61638;SDS011;47544;52.484;4.658;2024-01-15T00:23:08;3.83;;;0.55;;
61638;SDS011;47544;52.484;4.658;2024-01-15T00:23:19;2.28;;;0.38;;
61638;SDS011;47544;52.484;4.658;2024-01-15T00:23:30;3.78;;;0.35;;
61638;SDS011;47544;52.484;4.658;2024-01-15T00:23:42;3.55;;;0.30;;
61638;SDS011;47544;52.484;4.658;2024-01-15T00:23:53;4.50;;;0.40;;
61638;SDS011;47544;52.484;4.658;2024-01-15T00:24:04;2.75;;;0.32;;
61638;SDS011;47544;52.484;4.658;2024-01-15T00:24:15;3.38;;;0.40;;
61638;SDS011;47544;52.484;4.658;2024-01-15T00:24:26;4.22;;;0.52;;
61638;SDS011;47544;52.484;4.658;2024-01-15T00:24:37;4.55;;;0.73;;
61638;SDS011;47544;52.484;4.658;2024-01-15T00:24:47;4.13;;;0.73;;
61638;SDS011;47544;52.484;4.658;2024-01-15T00:24:59;3.35;;;0.55;;
61638;SDS011;47544;52.484;4.658;2024-01-15T00:25:10;3.22;;;0.40;;
61638;SDS011;47544;52.484;4.658;2024-01-15T00:25:21;3.15;;;0.47;;
61638;SDS011;47544;52.484;4.658;2024-01-15T00:25:32;1.88;;;0.35;;
61638;SDS011;47544;52.484;4.658;2024-01-15T00:25:44;1.08;;;0.20;;
61638;SDS011;47544;52.484;4.658;2024-01-15T00:25:55;1.40;;;0.20;;
61638;SDS011;47544;52.484;4.658;2024-01-15T00:26:06;3.30;;;0.40;;
61638;SDS011;47544;52.484;4.658;2024-01-15T00:26:17;3.72;;;0.47;;
61638;SDS011;47544;52.484;4.658;2024-01-15T00:26:28;4.05;;;0.47;;
61638;SDS011;47544;52.484;4.658;2024-01-15T00:26:39;3.47;;;0.45;;
61638;SDS011;47544;52.484;4.658;2024-01-15T00:26:50;3.72;;;0.60;;
61638;SDS011;47544;52.484;4.658;2024-01-15T00:27:01;3.78;;;0.57;;
61638;SDS011;47544;52.484;4.658;2024-01-15T00:27:12;3.45;;;0.45;;
61638;SDS011;47544;52.484;4.658;2024-01-15T00:27:23;3.10;;;0.30;;
61638;SDS011;47544;52.484;4.658;2024-01-15T00:27:35;2.53;;;0.30;;
61638;SDS011;47544;52.484;4.658;2024-01-15T00:27:48;4.00;;;0.40;;
61638;SDS011;47544;52.484;4.658;2024-01-15T00:27:59;4.20;;;0.50;;
61638;SDS011;47544;52.484;4.658;2024-01-15T00:28:10;4.13;;;0.50;;
61638;SDS011;47544;52.484;4.658;2024-01-15T00:28:21;1.95;;;0.40;;
61638;SDS011;47544;52.484;4.658;2024-01-15T00:28:32;1.38;;;0.30;;
61638;SDS011;47544;52.484;4.658;2024-01-15T00:28:43;2.60;;;0.30;;
61638;SDS011;47544;52.484;4.658;2024-01-15T00:28:54;2.90;;;0.30;;
61638;SDS011;47544;52.484;4.658;2024-01-15T00:29:06;3.28;;;0.32;;
61638;SDS011;47544;52.484;4.658;2024-01-15T00:29:17;2.85;;;0.30;;
61638;SDS011;47544;52.484;4.658;2024-01-15T00:29:29;3.75;;;0.30;;
61638;SDS011;47544;52.484;4.658;2024-01-15T00:29:40;3.17;;;0.20;;
61638;SDS011;47544;52.484;4.658;2024-01-15T00:29:51;2.10;;;0.20;;
61638;SDS011;47544;52.484;4.658;2024-01-15T00:30:02;2.55;;;0.10;;
61638;SDS011;47544;52.484;4.658;2024-01-15T00:30:15;2.88;;;0.15;;
61638;SDS011;47544;52.484;4.658;2024-01-15T00:30:26;2.03;;;0.20;;
61638;SDS011;47544;52.484;4.658;2024-01-15T00:30:37;1.17;;;0.20;;
61638;SDS011;47544;52.484;4.658;2024-01-15T00:30:48;0.80;;;0.15;;
61638;SDS011;47544;52.484;4.658;2024-01-15T00:30:59;1.20;;;0.22;;
61638;SDS011;47544;52.484;4.658;2024-01-15T00:31:10;1.30;;;0.30;;
61638;SDS011;47544;52.484;4.658;2024-01-15T00:31:21;2.00;;;0.40;;
61638;SDS011;47544;52.484;4.658;2024-01-15T00:31:33;3.00;;;0.30;;
61638;SDS011;47544;52.484;4.658;2024-01-15T00:31:44;4.18;;;0.28;;
61638;SDS011;47544;52.484;4.658;2024-01-15T00:31:55;4.28;;;0.25;;
61638;SDS011;47544;52.484;4.658;2024-01-15T00:32:05;2.40;;;0.20;;
61638;SDS011;47544;52.484;4.658;2024-01-15T00:32:16;1.42;;;0.20;;
61638;SDS011;47544;52.484;4.658;2024-01-15T00:32:27;1.98;;;0.20;;
61638;SDS011;47544;52.484;4.658;2024-01-15T00:32:39;3.08;;;0.20;;
61638;SDS011;47544;52.484;4.658;2024-01-15T00:32:51;2.95;;;0.20;;
61638;SDS011;47544;52.484;4.658;2024-01-15T00:33:02;2.90;;;0.22;;
61638;SDS011;47544;52.484;4.658;2024-01-15T00:33:13;2.80;;;0.30;;
61638;SDS011;47544;52.484;4.658;2024-01-15T00:33:25;2.83;;;0.30;;
61638;SDS011;47544;52.484;4.658;2024-01-15T00:33:36;1.65;;;0.20;;
61638;SDS011;47544;52.484;4.658;2024-01-15T00:33:47;2.85;;;0.40;;
61638;SDS011;47544;52.484;4.658;2024-01-15T00:33:58;2.47;;;0.35;;
61638;SDS011;47544;52.484;4.658;2024-01-15T00:34:09;2.40;;;0.25;;
61638;SDS011;47544;52.484;4.658;2024-01-15T00:34:20;1.58;;;0.20;;
61638;SDS011;47544;52.484;4.658;2024-01-15T00:34:31;2.20;;;0.20;;
61638;SDS011;47544;52.484;4.658;2024-01-15T00:34:42;3.05;;;0.30;;
61638;SDS011;47544;52.484;4.658;2024-01-15T00:34:53;4.45;;;0.30;;
61638;SDS011;47544;52.484;4.658;2024-01-15T00:35:04;3.93;;;0.30;;
61638;SDS011;47544;52.484;4.658;2024-01-15T00:35:15;4.07;;;0.30;;
61638;SDS011;47544;52.484;4.658;2024-01-15T00:35:27;4.25;;;0.30;;
61638;SDS011;47544;52.484;4.658;2024-01-15T00:35:38;5.05;;;0.32;;
61638;SDS011;47544;52.484;4.658;2024-01-15T00:35:49;5.78;;;0.55;;
61638;SDS011;47544;52.484;4.658;2024-01-15T00:36:00;7.05;;;0.77;;
61638;SDS011;47544;52.484;4.658;2024-01-15T00:36:11;8.25;;;0.90;;
61638;SDS011;47544;52.484;4.658;2024-01-15T00:36:22;6.93;;;0.70;;
61638;SDS011;47544;52.484;4.658;2024-01-15T00:36:33;6.53;;;0.50;;
61638;SDS011;47544;52.484;4.658;2024-01-15T00:36:44;5.35;;;0.38;;
61638;SDS011;47544;52.484;4.658;2024-01-15T00:36:55;5.28;;;0.40;;
61638;SDS011;47544;52.484;4.658;2024-01-15T00:37:06;4.90;;;0.40;;
61638;SDS011;47544;52.484;4.658;2024-01-15T00:37:17;4.95;;;0.70;;
61638;SDS011;47544;52.484;4.658;2024-01-15T00:37:28;5.63;;;0.70;;
61638;SDS011;47544;52.484;4.658;2024-01-15T00:37:40;5.03;;;0.70;;
61638;SDS011;47544;52.484;4.658;2024-01-15T00:37:51;4.18;;;0.40;;
61638;SDS011;47544;52.484;4.658;2024-01-15T00:38:02;4.50;;;0.40;;
61638;SDS011;47544;52.484;4.658;2024-01-15T00:38:13;4.90;;;0.60;;
61638;SDS011;47544;52.484;4.658;2024-01-15T00:38:24;4.50;;;0.50;;
61638;SDS011;47544;52.484;4.658;2024-01-15T00:38:35;5.55;;;0.50;;
61638;SDS011;47544;52.484;4.658;2024-01-15T00:38:46;5.82;;;0.40;;
61638;SDS011;47544;52.484;4.658;2024-01-15T00:38:58;6.80;;;0.63;;
61638;SDS011;47544;52.484;4.658;2024-01-15T00:39:10;5.45;;;0.70;;
61638;SDS011;47544;52.484;4.658;2024-01-15T00:39:21;4.45;;;0.60;;
61638;SDS011;47544;52.484;4.658;2024-01-15T00:39:32;4.40;;;0.43;;
61638;SDS011;47544;52.484;4.658;2024-01-15T00:39:43;4.85;;;0.50;;
61638;SDS011;47544;52.484;4.658;2024-01-15T00:39:54;4.15;;;0.52;;
61638;SDS011;47544;52.484;4.658;2024-01-15T00:40:05;4.22;;;0.47;;
61638;SDS011;47544;52.484;4.658;2024-01-15T00:40:18;3.03;;;0.28;;
61638;SDS011;47544;52.484;4.658;2024-01-15T00:40:29;4.68;;;0.40;;
61638;SDS011;47544;52.484;4.658;2024-01-15T00:40:40;4.68;;;0.40;;
61638;SDS011;47544;52.484;4.658;2024-01-15T00:40:52;6.38;;;0.40;;
61638;SDS011;47544;52.484;4.658;2024-01-15T00:41:03;5.57;;;0.40;;
61638;SDS011;47544;52.484;4.658;2024-01-15T00:41:14;4.30;;;0.40;;
61638;SDS011;47544;52.484;4.658;2024-01-15T00:41:25;4.60;;;0.40;;
61638;SDS011;47544;52.484;4.658;2024-01-15T00:41:38;6.22;;;0.50;;
61638;SDS011;47544;52.484;4.658;2024-01-15T00:41:49;7.95;;;0.60;;
61638;SDS011;47544;52.484;4.658;2024-01-15T00:42:00;7.22;;;0.60;;
61638;SDS011;47544;52.484;4.658;2024-01-15T00:42:11;8.63;;;0.65;;
61638;SDS011;47544;52.484;4.658;2024-01-15T00:42:22;6.95;;;0.50;;
61638;SDS011;47544;52.484;4.658;2024-01-15T00:42:33;5.18;;;0.43;;
61638;SDS011;47544;52.484;4.658;2024-01-15T00:42:44;4.50;;;0.50;;
61638;SDS011;47544;52.484;4.658;2024-01-15T00:42:55;4.03;;;0.47;;
61638;SDS011;47544;52.484;4.658;2024-01-15T00:43:06;5.05;;;0.57;;
61638;SDS011;47544;52.484;4.658;2024-01-15T00:43:18;5.60;;;0.60;;
61638;SDS011;47544;52.484;4.658;2024-01-15T00:43:29;6.03;;;0.70;;
61638;SDS011;47544;52.484;4.658;2024-01-15T00:43:40;7.30;;;0.60;;
61638;SDS011;47544;52.484;4.658;2024-01-15T00:43:51;8.00;;;0.60;;
61638;SDS011;47544;52.484;4.658;2024-01-15T00:44:02;7.05;;;0.50;;
61638;SDS011;47544;52.484;4.658;2024-01-15T00:44:13;6.80;;;0.55;;
61638;SDS011;47544;52.484;4.658;2024-01-15T00:44:24;5.90;;;0.50;;
61638;SDS011;47544;52.484;4.658;2024-01-15T00:44:35;6.55;;;0.50;;
61638;SDS011;47544;52.484;4.658;2024-01-15T00:44:46;5.53;;;0.55;;
61638;SDS011;47544;52.484;4.658;2024-01-15T00:44:58;7.22;;;0.70;;
61638;SDS011;47544;52.484;4.658;2024-01-15T00:45:09;8.27;;;0.80;;
61638;SDS011;47544;52.484;4.658;2024-01-15T00:45:20;10.40;;;0.80;;
61638;SDS011;47544;52.484;4.658;2024-01-15T00:45:31;8.57;;;0.70;;
61638;SDS011;47544;52.484;4.658;2024-01-15T00:45:42;4.25;;;0.38;;
61638;SDS011;47544;52.484;4.658;2024-01-15T00:45:53;4.75;;;0.43;;
61638;SDS011;47544;52.484;4.658;2024-01-15T00:46:04;5.93;;;0.70;;
61638;SDS011;47544;52.484;4.658;2024-01-15T00:46:15;7.57;;;0.80;;
61638;SDS011;47544;52.484;4.658;2024-01-15T00:46:26;8.00;;;0.80;;
61638;SDS011;47544;52.484;4.658;2024-01-15T00:46:42;7.60;;;0.95;;
61638;SDS011;47544;52.484;4.658;2024-01-15T00:46:53;7.97;;;0.95;;
61638;SDS011;47544;52.484;4.658;2024-01-15T00:47:05;8.40;;;0.80;;
61638;SDS011;47544;52.484;4.658;2024-01-15T00:47:17;10.85;;;1.05;;
61638;SDS011;47544;52.484;4.658;2024-01-15T00:47:28;8.35;;;1.00;;
61638;SDS011;47544;52.484;4.658;2024-01-15T00:47:39;8.93;;;1.05;;
61638;SDS011;47544;52.484;4.658;2024-01-15T00:47:52;5.50;;;0.80;;
61638;SDS011;47544;52.484;4.658;2024-01-15T00:48:03;6.47;;;0.60;;
61638;SDS011;47544;52.484;4.658;2024-01-15T00:48:15;7.68;;;0.70;;
61638;SDS011;47544;52.484;4.658;2024-01-15T00:48:26;7.18;;;0.80;;
61638;SDS011;47544;52.484;4.658;2024-01-15T00:48:37;7.15;;;0.80;;
61638;SDS011;47544;52.484;4.658;2024-01-15T00:48:48;5.45;;;0.75;;
61638;SDS011;47544;52.484;4.658;2024-01-15T00:48:59;4.63;;;0.60;;
61638;SDS011;47544;52.484;4.658;2024-01-15T00:49:10;4.45;;;0.73;;
61638;SDS011;47544;52.484;4.658;2024-01-15T00:49:22;4.47;;;0.88;;
61638;SDS011;47544;52.484;4.658;2024-01-15T00:49:33;4.15;;;0.85;;
61638;SDS011;47544;52.484;4.658;2024-01-15T00:49:44;4.68;;;0.70;;
61638;SDS011;47544;52.484;4.658;2024-01-15T00:49:55;7.28;;;0.85;;
61638;SDS011;47544;52.484;4.658;2024-01-15T00:50:06;8.13;;;0.85;;
61638;SDS011;47544;52.484;4.658;2024-01-15T00:50:17;7.20;;;0.80;;
61638;SDS011;47544;52.484;4.658;2024-01-15T00:50:28;5.25;;;0.63;;
61638;SDS011;47544;52.484;4.658;2024-01-15T00:50:40;3.08;;;0.60;;
61638;SDS011;47544;52.484;4.658;2024-01-15T00:50:53;4.03;;;0.65;;
61638;SDS011;47544;52.484;4.658;2024-01-15T00:51:05;6.43;;;0.93;;
61638;SDS011;47544;52.484;4.658;2024-01-15T00:51:16;6.32;;;0.85;;
61638;SDS011;47544;52.484;4.658;2024-01-15T00:51:26;6.47;;;0.77;;
61638;SDS011;47544;52.484;4.658;2024-01-15T00:51:39;7.32;;;0.68;;
61638;SDS011;47544;52.484;4.658;2024-01-15T00:51:50;10.57;;;0.93;;
61638;SDS011;47544;52.484;4.658;2024-01-15T00:52:01;9.00;;;0.90;;
61638;SDS011;47544;52.484;4.658;2024-01-15T00:52:12;10.68;;;1.10;;
61638;SDS011;47544;52.484;4.658;2024-01-15T00:52:23;10.75;;;1.08;;
61638;SDS011;47544;52.484;4.658;2024-01-15T00:52:34;11.02;;;1.27;;
61638;SDS011;47544;52.484;4.658;2024-01-15T00:52:45;10.10;;;1.25;;
61638;SDS011;47544;52.484;4.658;2024-01-15T00:52:57;9.57;;;1.33;;
61638;SDS011;47544;52.484;4.658;2024-01-15T00:53:08;8.45;;;0.90;;
61638;SDS011;47544;52.484;4.658;2024-01-15T00:53:19;8.98;;;0.85;;
61638;SDS011;47544;52.484;4.658;2024-01-15T00:53:30;9.38;;;0.93;;
61638;SDS011;47544;52.484;4.658;2024-01-15T00:53:41;8.55;;;0.98;;
61638;SDS011;47544;52.484;4.658;2024-01-15T00:53:52;7.47;;;1.00;;
61638;SDS011;47544;52.484;4.658;2024-01-15T00:54:03;10.07;;;1.02;;
61638;SDS011;47544;52.484;4.658;2024-01-15T00:54:14;9.73;;;1.15;;
61638;SDS011;47544;52.484;4.658;2024-01-15T00:54:26;10.48;;;1.20;;
61638;SDS011;47544;52.484;4.658;2024-01-15T00:54:39;9.77;;;1.33;;
61638;SDS011;47544;52.484;4.658;2024-01-15T00:54:51;9.75;;;1.40;;
61638;SDS011;47544;52.484;4.658;2024-01-15T00:55:03;9.00;;;1.50;;
61638;SDS011;47544;52.484;4.658;2024-01-15T00:55:14;7.80;;;1.25;;
61638;SDS011;47544;52.484;4.658;2024-01-15T00:55:25;7.53;;;1.10;;
61638;SDS011;47544;52.484;4.658;2024-01-15T00:55:36;7.45;;;1.00;;
61638;SDS011;47544;52.484;4.658;2024-01-15T00:55:48;10.43;;;1.58;;
61638;SDS011;47544;52.484;4.658;2024-01-15T00:55:59;12.80;;;1.60;;
61638;SDS011;47544;52.484;4.658;2024-01-15T00:56:10;12.18;;;1.45;;
61638;SDS011;47544;52.484;4.658;2024-01-15T00:56:21;11.27;;;1.08;;
61638;SDS011;47544;52.484;4.658;2024-01-15T00:56:32;10.85;;;1.27;;
61638;SDS011;47544;52.484;4.658;2024-01-15T00:56:44;9.63;;;1.20;;
61638;SDS011;47544;52.484;4.658;2024-01-15T00:56:55;8.00;;;1.10;;
61638;SDS011;47544;52.484;4.658;2024-01-15T00:57:06;7.22;;;1.20;;
61638;SDS011;47544;52.484;4.658;2024-01-15T00:57:17;5.97;;;0.98;;
61638;SDS011;47544;52.484;4.658;2024-01-15T00:57:29;5.78;;;0.88;;
61638;SDS011;47544;52.484;4.658;2024-01-15T00:57:40;5.82;;;0.75;;
61638;SDS011;47544;52.484;4.658;2024-01-15T00:57:51;7.13;;;0.93;;
61638;SDS011;47544;52.484;4.658;2024-01-15T00:58:02;7.72;;;0.90;;
61638;SDS011;47544;52.484;4.658;2024-01-15T00:58:13;9.35;;;0.93;;
61638;SDS011;47544;52.484;4.658;2024-01-15T00:58:25;11.18;;;1.08;;
61638;SDS011;47544;52.484;4.658;2024-01-15T00:58:37;11.95;;;1.10;;
61638;SDS011;47544;52.484;4.658;2024-01-15T00:58:49;9.25;;;1.10;;
61638;SDS011;47544;52.484;4.658;2024-01-15T00:59:00;8.73;;;1.40;;
61638;SDS011;47544;52.484;4.658;2024-01-15T00:59:11;10.93;;;1.52;;
61638;SDS011;47544;52.484;4.658;2024-01-15T00:59:25;12.32;;;1.30;;
61638;SDS011;47544;52.484;4.658;2024-01-15T00:59:36;9.13;;;0.85;;
61638;SDS011;47544;52.484;4.658;2024-01-15T00:59:47;8.15;;;0.80;;
61638;SDS011;47544;52.484;4.658;2024-01-15T00:59:59;6.82;;;0.88;;
61638;SDS011;47544;52.484;4.658;2024-01-15T01:00:10;7.85;;;1.10;;
61638;SDS011;47544;52.484;4.658;2024-01-15T01:00:21;6.63;;;1.30;;
61638;SDS011;47544;52.484;4.658;2024-01-15T01:00:32;5.28;;;1.35;;
61638;SDS011;47544;52.484;4.658;2024-01-15T01:00:44;4.90;;;1.10;;
61638;SDS011;47544;52.484;4.658;2024-01-15T01:00:55;5.88;;;1.10;;
61638;SDS011;47544;52.484;4.658;2024-01-15T01:01:06;8.05;;;1.05;;
61638;SDS011;47544;52.484;4.658;2024-01-15T01:01:17;10.15;;;1.10;;
61638;SDS011;47544;52.484;4.658;2024-01-15T01:01:28;10.18;;;1.20;;
61638;SDS011;47544;52.484;4.658;2024-01-15T01:01:39;8.88;;;1.20;;
61638;SDS011;47544;52.484;4.658;2024-01-15T01:01:53;7.03;;;1.10;;
61638;SDS011;47544;52.484;4.658;2024-01-15T01:02:04;6.73;;;1.07;;
61638;SDS011;47544;52.484;4.658;2024-01-15T01:02:15;6.05;;;1.20;;
61638;SDS011;47544;52.484;4.658;2024-01-15T01:02:27;6.05;;;1.05;;
61638;SDS011;47544;52.484;4.658;2024-01-15T01:02:38;5.45;;;0.82;;
61638;SDS011;47544;52.484;4.658;2024-01-15T01:02:49;6.20;;;0.90;;
61638;SDS011;47544;52.484;4.658;2024-01-15T01:03:01;6.55;;;0.98;;
61638;SDS011;47544;52.484;4.658;2024-01-15T01:03:12;8.05;;;1.05;;
61638;SDS011;47544;52.484;4.658;2024-01-15T01:03:23;9.25;;;0.90;;
61638;SDS011;47544;52.484;4.658;2024-01-15T01:03:34;9.77;;;0.97;;
61638;SDS011;47544;52.484;4.658;2024-01-15T01:03:45;6.32;;;0.80;;
61638;SDS011;47544;52.484;4.658;2024-01-15T01:03:56;5.18;;;1.20;;
61638;SDS011;47544;52.484;4.658;2024-01-15T01:04:07;4.38;;;1.27;;
61638;SDS011;47544;52.484;4.658;2024-01-15T01:04:19;6.95;;;1.42;;
61638;SDS011;47544;52.484;4.658;2024-01-15T01:04:29;6.50;;;1.00;;
61638;SDS011;47544;52.484;4.658;2024-01-15T01:04:40;9.65;;;1.05;;
61638;SDS011;47544;52.484;4.658;2024-01-15T01:04:51;9.18;;;0.70;;
61638;SDS011;47544;52.484;4.658;2024-01-15T01:05:03;10.88;;;1.00;;
61638;SDS011;47544;52.484;4.658;2024-01-15T01:05:14;7.90;;;1.10;;
61638;SDS011;47544;52.484;4.658;2024-01-15T01:05:25;7.80;;;1.10;;
61638;SDS011;47544;52.484;4.658;2024-01-15T01:05:36;6.18;;;0.73;;
61638;SDS011;47544;52.484;4.658;2024-01-15T01:05:48;5.25;;;0.80;;
61638;SDS011;47544;52.484;4.658;2024-01-15T01:05:59;5.03;;;0.80;;
61638;SDS011;47544;52.484;4.658;2024-01-15T01:06:10;7.10;;;0.95;;
61638;SDS011;47544;52.484;4.658;2024-01-15T01:06:21;6.30;;;0.82;;
61638;SDS011;47544;52.484;4.658;2024-01-15T01:06:32;6.72;;;0.93;;
61638;SDS011;47544;52.484;4.658;2024-01-15T01:06:44;7.28;;;0.90;;
61638;SDS011;47544;52.484;4.658;2024-01-15T01:06:55;9.10;;;0.95;;
61638;SDS011;47544;52.484;4.658;2024-01-15T01:07:06;7.90;;;0.75;;
61638;SDS011;47544;52.484;4.658;2024-01-15T01:07:17;6.35;;;0.68;;
61638;SDS011;47544;52.484;4.658;2024-01-15T01:07:28;5.53;;;0.45;;
61638;SDS011;47544;52.484;4.658;2024-01-15T01:07:39;5.80;;;0.57;;
61638;SDS011;47544;52.484;4.658;2024-01-15T01:07:50;5.82;;;0.60;;
61638;SDS011;47544;52.484;4.658;2024-01-15T01:08:01;4.75;;;0.70;;